Constance, Kentucky
Current Conditions -  °F | °C
As of 7:38 PM on Monday 24 Nov 2014 (Local Time) from KI69 Reporting Station
Broken Clouds Broken Clouds  
Wind Chill: 39°   Ceiling: 5000
Heat Index: 45°   Visibility: 10mi
Dew Point: 32°   Wind: 12mph
Humidity: 61%   Direction: 250°WSW
Pressure: 29.85"   Gusts: 16mph
Location:  39.0738°N, 84.6374°W
Report Text: KI69 250038Z AUTO 25010G14KT 10SM SCT035 BKN050 07/00 A2985 RMK AO1
Loading
Personal Weather Stations






























Interactive Weather Map New forecast layout! Learn more

10-Day Weather Forecast

Advertisements
Track Severe Weather on mobile